Time;durP1;ratioP1;P1;durP2;ratioP2;P2;SDS_P1;SDS_P2;PMS_P1;PMS_P2;Temp;Humidity;BMP_temperature;BMP_pressure;BME280_temperature;BME280_humidity;BME280_pressure;Samples;Min_cycle;Max_cycle;Signal;HPM_P1;HPM_P2
2022/08/27 00:01:55;;;;;;;9.05;3.40;;;16.10;99.90;;;;;;5004663;28;20049;-86
2022/08/27 00:04:21;;;;;;;7.10;3.50;;;16.00;99.90;;;;;;4999048;28;20046;-86
2022/08/27 00:06:47;;;;;;;7.10;2.92;;;16.10;99.90;;;;;;5001102;28;20077;-86
2022/08/27 00:09:13;;;;;;;8.68;3.17;;;16.10;99.90;;;;;;5004573;28;20076;-86
2022/08/27 00:11:38;;;;;;;10.50;3.40;;;16.10;99.90;;;;;;5006227;28;20141;-87
2022/08/27 00:14:04;;;;;;;7.78;3.35;;;16.10;99.90;;;;;;5002834;28;20460;-87
2022/08/27 00:16:31;;;;;;;7.90;3.17;;;16.10;99.90;;;;;;4998988;28;20030;-87
2022/08/27 00:18:57;;;;;;;8.38;3.30;;;16.10;99.90;;;;;;4994118;28;20055;-86
2022/08/27 00:21:22;;;;;;;6.90;3.05;;;16.20;99.90;;;;;;5004835;28;20510;-85
2022/08/27 00:23:49;;;;;;;9.75;3.92;;;16.10;99.90;;;;;;4993452;28;20081;-87
2022/08/27 00:26:15;;;;;;;8.60;3.40;;;16.10;99.90;;;;;;5014899;28;20053;-88
2022/08/27 00:28:42;;;;;;;8.88;3.80;;;16.10;99.90;;;;;;4992371;28;20034;-89
2022/08/27 00:31:07;;;;;;;9.40;3.53;;;16.10;99.90;;;;;;5007016;28;20049;-88
2022/08/27 00:33:34;;;;;;;10.23;3.45;;;16.10;99.90;;;;;;4994156;28;20051;-87
2022/08/27 00:35:59;;;;;;;9.05;3.42;;;16.10;99.90;;;;;;5001746;28;20422;-89
2022/08/27 00:38:26;;;;;;;8.75;3.58;;;16.10;99.90;;;;;;5001020;28;20057;-88
2022/08/27 00:40:52;;;;;;;9.68;3.35;;;16.10;99.90;;;;;;5001365;28;20473;-90
2022/08/27 00:43:22;;;;;;;9.90;3.72;;;16.10;99.90;;;;;;5006467;28;20073;-89
2022/08/27 00:45:50;;;;;;;8.10;3.47;;;16.10;99.90;;;;;;5000330;28;20137;-87
2022/08/27 00:48:19;;;;;;;7.40;3.30;;;16.10;99.90;;;;;;5005460;28;20096;-88
2022/08/27 00:50:52;;;;;;;9.40;3.40;;;16.00;99.90;;;;;;5001144;28;20038;-89
2022/08/27 00:53:22;;;;;;;8.52;3.63;;;16.10;99.90;;;;;;5003393;28;20042;-90
2022/08/27 00:55:59;;;;;;;9.57;3.40;;;16.10;99.90;;;;;;4999025;28;20129;-90
2022/08/27 00:58:28;;;;;;;8.25;3.40;;;16.10;99.90;;;;;;5001859;28;20304;-88
2022/08/27 01:00:55;;;;;;;8.88;3.42;;;16.10;99.90;;;;;;5002519;28;20041;-88
2022/08/27 01:03:21;;;;;;;9.18;3.53;;;16.10;99.90;;;;;;4984569;28;20046;-88
2022/08/27 01:05:48;;;;;;;7.93;3.53;;;16.10;99.90;;;;;;4982609;28;20042;-89
2022/08/27 01:08:19;;;;;;;10.38;3.63;;;16.10;99.90;;;;;;5001055;28;20446;-88
2022/08/27 01:10:45;;;;;;;9.40;3.80;;;16.20;99.90;;;;;;5001357;28;20095;-89
2022/08/27 01:13:14;;;;;;;8.48;3.60;;;16.20;99.90;;;;;;5008861;28;20045;-89
2022/08/27 01:15:40;;;;;;;8.85;3.70;;;16.20;99.90;;;;;;4982314;28;20053;-88
2022/08/27 01:18:07;;;;;;;8.60;3.60;;;16.20;99.90;;;;;;4996707;28;20057;-89
2022/08/27 01:20:52;;;;;;;9.18;3.80;;;16.20;99.90;;;;;;4998418;28;20084;-89
2022/08/27 01:23:39;;;;;;;8.10;3.58;;;16.20;99.90;;;;;;4984383;28;20038;-87
2022/08/27 01:26:06;;;;;;;9.02;3.80;;;16.20;99.90;;;;;;5000690;28;20058;-89
2022/08/27 01:28:34;;;;;;;8.05;3.58;;;16.10;99.90;;;;;;5004120;28;20045;-89
2022/08/27 01:31:01;;;;;;;9.80;3.60;;;16.10;99.90;;;;;;5000008;28;20088;-88
2022/08/27 01:33:26;;;;;;;9.25;3.75;;;16.20;99.90;;;;;;5003233;28;20557;-89
2022/08/27 01:35:52;;;;;;;12.18;3.88;;;16.20;99.90;;;;;;4985495;28;20045;-88
2022/08/27 01:38:19;;;;;;;8.98;3.97;;;16.10;99.90;;;;;;4990610;28;20050;-89
2022/08/27 01:40:46;;;;;;;8.68;3.35;;;16.20;99.90;;;;;;5005198;28;20149;-87
2022/08/27 01:43:12;;;;;;;9.93;3.80;;;16.20;99.90;;;;;;5006625;28;20066;-88
2022/08/27 01:45:43;;;;;;;8.73;3.67;;;16.20;99.90;;;;;;5002229;28;20048;-88
2022/08/27 01:48:09;;;;;;;9.05;3.50;;;16.20;99.90;;;;;;5004177;28;20364;-89
2022/08/27 01:50:39;;;;;;;8.63;3.35;;;16.10;99.90;;;;;;5008878;28;20049;-90
2022/08/27 01:53:09;;;;;;;9.10;3.50;;;16.10;99.90;;;;;;5006679;28;20045;-90
2022/08/27 01:55:36;;;;;;;7.90;3.30;;;16.20;99.90;;;;;;5002028;28;20054;-90
2022/08/27 01:58:02;;;;;;;8.40;3.47;;;16.20;99.90;;;;;;4990292;28;20060;-88
2022/08/27 02:00:33;;;;;;;8.88;3.72;;;16.20;99.90;;;;;;5002138;28;20054;-89
2022/08/27 02:02:59;;;;;;;7.93;3.53;;;16.20;99.90;;;;;;5002731;28;20515;-88
2022/08/27 02:05:27;;;;;;;7.72;3.20;;;16.20;99.90;;;;;;5008185;28;20376;-89
2022/08/27 02:07:53;;;;;;;9.60;3.40;;;16.10;99.90;;;;;;5003732;28;20038;-89
2022/08/27 02:10:25;;;;;;;8.85;3.40;;;16.10;99.90;;;;;;5003236;28;20440;-90
2022/08/27 02:12:51;;;;;;;8.82;3.88;;;16.10;99.90;;;;;;5005420;28;20132;-89
2022/08/27 02:15:18;;;;;;;8.73;3.60;;;16.10;99.90;;;;;;5004979;28;20046;-88
2022/08/27 02:17:45;;;;;;;7.90;3.53;;;16.10;99.90;;;;;;5002503;28;20045;-88
2022/08/27 02:20:12;;;;;;;7.72;3.45;;;16.20;99.90;;;;;;5006241;28;20117;-89
2022/08/27 02:22:39;;;;;;;10.25;3.28;;;16.20;99.90;;;;;;5005706;28;20046;-89
2022/08/27 02:25:06;;;;;;;7.80;3.53;;;16.20;99.90;;;;;;5004888;28;20473;-90
2022/08/27 02:27:33;;;;;;;9.38;3.65;;;16.20;99.90;;;;;;5006374;28;20410;-89
2022/08/27 02:29:58;;;;;;;8.40;3.38;;;16.20;99.90;;;;;;5003795;28;20445;-89
2022/08/27 02:32:24;;;;;;;8.57;3.50;;;16.20;99.90;;;;;;4988062;28;20054;-89
2022/08/27 02:34:50;;;;;;;8.75;3.58;;;16.20;99.90;;;;;;5000792;28;20065;-89
2022/08/27 02:37:15;;;;;;;8.68;3.28;;;16.20;99.90;;;;;;4985838;28;20041;-88
2022/08/27 02:39:41;;;;;;;7.65;3.45;;;16.20;99.90;;;;;;5001214;28;20042;-88
2022/08/27 02:42:07;;;;;;;8.38;3.72;;;16.20;99.90;;;;;;5004622;28;20064;-88
2022/08/27 02:44:34;;;;;;;8.43;3.67;;;16.20;99.90;;;;;;5002217;28;20041;-88
2022/08/27 02:47:01;;;;;;;6.63;3.53;;;16.20;99.90;;;;;;4987461;28;20069;-89
2022/08/27 02:49:27;;;;;;;8.50;3.50;;;16.20;99.90;;;;;;5006370;28;20053;-89
2022/08/27 02:51:55;;;;;;;9.52;3.90;;;16.10;99.90;;;;;;5002233;28;20050;-88
2022/08/27 02:54:22;;;;;;;7.80;3.35;;;16.10;99.90;;;;;;5005941;28;20418;-89
2022/08/27 02:56:48;;;;;;;8.95;3.88;;;16.10;99.90;;;;;;5001064;28;20069;-88
2022/08/27 02:59:13;;;;;;;7.55;3.75;;;16.10;99.90;;;;;;4981284;28;20054;-89
2022/08/27 03:01:39;;;;;;;9.98;3.53;;;16.10;99.90;;;;;;5001309;28;20559;-88
2022/08/27 03:04:05;;;;;;;7.70;3.40;;;16.10;99.90;;;;;;5000110;28;20141;-91
2022/08/27 03:06:30;;;;;;;8.40;3.25;;;16.10;99.90;;;;;;5002351;28;20034;-90
2022/08/27 03:08:56;;;;;;;8.55;3.22;;;16.00;99.90;;;;;;4985565;28;20053;-89
2022/08/27 03:11:22;;;;;;;9.00;3.78;;;16.10;99.90;;;;;;5008561;28;20038;-88
2022/08/27 03:13:49;;;;;;;8.90;3.50;;;16.00;99.90;;;;;;5001834;28;20050;-89
2022/08/27 03:16:15;;;;;;;7.35;3.30;;;16.00;99.90;;;;;;5006016;28;20073;-89
2022/08/27 03:18:40;;;;;;;7.70;3.15;;;16.00;99.90;;;;;;5003800;28;20521;-88
2022/08/27 03:21:07;;;;;;;8.50;3.60;;;16.00;99.90;;;;;;4980887;28;20095;-89
2022/08/27 03:23:33;;;;;;;9.77;4.07;;;16.00;99.90;;;;;;5003676;28;20084;-90
2022/08/27 03:26:01;;;;;;;8.73;3.70;;;16.00;99.90;;;;;;5002391;28;20038;-88
2022/08/27 03:28:30;;;;;;;8.82;3.60;;;15.90;99.90;;;;;;5003085;28;20081;-88
2022/08/27 03:31:00;;;;;;;8.07;3.38;;;15.90;99.90;;;;;;5007431;28;20189;-88
2022/08/27 03:33:30;;;;;;;6.78;3.50;;;15.90;99.90;;;;;;5004455;28;20046;-88
2022/08/27 03:35:56;;;;;;;8.93;3.75;;;15.80;99.90;;;;;;5004809;28;20380;-88
2022/08/27 03:38:23;;;;;;;7.43;3.42;;;15.80;99.90;;;;;;4988586;28;20053;-89
2022/08/27 03:40:49;;;;;;;9.25;4.05;;;15.70;99.90;;;;;;4987082;28;20470;-88
2022/08/27 03:43:16;;;;;;;7.63;3.83;;;15.70;99.90;;;;;;4989608;28;20069;-89
2022/08/27 03:45:43;;;;;;;8.88;3.83;;;15.60;99.90;;;;;;4988679;28;20129;-89
2022/08/27 03:48:09;;;;;;;8.23;3.83;;;15.60;99.90;;;;;;5002330;28;20390;-88
2022/08/27 03:50:38;;;;;;;10.85;3.90;;;15.60;99.90;;;;;;4988081;28;21457;-88
2022/08/27 03:53:04;;;;;;;6.82;3.58;;;15.60;99.90;;;;;;5005555;28;20042;-89
2022/08/27 03:55:29;;;;;;;8.77;3.80;;;15.50;99.90;;;;;;5005263;28;20052;-89
2022/08/27 03:57:55;;;;;;;8.48;4.00;;;15.50;99.90;;;;;;4999898;28;20096;-88
2022/08/27 04:00:23;;;;;;;8.35;3.92;;;15.50;99.90;;;;;;5004046;28;20053;-88
2022/08/27 04:02:49;;;;;;;8.90;3.90;;;15.50;99.90;;;;;;4999925;28;20129;-87
2022/08/27 04:05:15;;;;;;;9.15;4.20;;;15.50;99.90;;;;;;4988388;28;20049;-89
2022/08/27 04:07:41;;;;;;;8.40;4.03;;;15.50;99.90;;;;;;4985177;28;20034;-88
2022/08/27 04:10:09;;;;;;;7.25;3.35;;;15.50;99.90;;;;;;4985326;28;20038;-88
2022/08/27 04:12:35;;;;;;;8.27;3.90;;;15.50;99.90;;;;;;5005056;28;20038;-89
2022/08/27 04:15:01;;;;;;;8.55;3.70;;;15.50;99.90;;;;;;4985471;28;20064;-88
2022/08/27 04:17:27;;;;;;;8.85;3.88;;;15.60;99.90;;;;;;5006973;28;20471;-88
2022/08/27 04:19:53;;;;;;;6.32;3.00;;;15.40;99.90;;;;;;5005517;28;20514;-88
2022/08/27 04:22:19;;;;;;;8.05;3.92;;;15.50;99.90;;;;;;5007955;28;20125;-88
2022/08/27 04:24:45;;;;;;;9.02;3.58;;;15.40;99.90;;;;;;4987157;28;20379;-88
2022/08/27 04:27:13;;;;;;;7.93;3.63;;;15.40;99.90;;;;;;5003753;28;20046;-88
2022/08/27 04:29:39;;;;;;;9.15;3.72;;;15.30;99.90;;;;;;5003962;28;20049;-88
2022/08/27 04:32:05;;;;;;;9.05;3.75;;;15.30;99.90;;;;;;5001845;28;20045;-89
2022/08/27 04:34:31;;;;;;;8.25;3.85;;;15.20;99.90;;;;;;5002342;28;20391;-89
2022/08/27 04:36:58;;;;;;;7.13;4.00;;;15.20;99.90;;;;;;4996617;28;20061;-89
2022/08/27 04:39:26;;;;;;;8.23;4.18;;;15.20;99.90;;;;;;5002500;28;20042;-89
2022/08/27 04:41:54;;;;;;;8.27;4.10;;;15.20;99.90;;;;;;4999916;28;20052;-87
2022/08/27 04:44:21;;;;;;;8.02;4.10;;;15.10;99.90;;;;;;5003303;28;20042;-88
2022/08/27 04:46:48;;;;;;;11.18;4.47;;;15.10;99.90;;;;;;5003189;28;20430;-88
2022/08/27 04:49:15;;;;;;;7.50;4.00;;;15.10;99.90;;;;;;5000074;28;20511;-88
2022/08/27 04:51:41;;;;;;;9.82;4.35;;;15.00;99.90;;;;;;5005823;28;20049;-88
2022/08/27 04:54:08;;;;;;;8.68;4.00;;;15.00;99.90;;;;;;5004631;28;20053;-89
2022/08/27 04:56:35;;;;;;;7.43;3.72;;;15.00;99.90;;;;;;5003825;28;20061;-89
2022/08/27 04:59:02;;;;;;;9.55;4.18;;;15.00;99.90;;;;;;4984332;28;20487;-88
2022/08/27 05:01:29;;;;;;;7.85;3.92;;;15.00;99.90;;;;;;4999359;28;20124;-88
2022/08/27 05:03:57;;;;;;;8.82;4.10;;;15.00;99.90;;;;;;4977238;28;20046;-88
2022/08/27 05:06:23;;;;;;;10.55;4.07;;;15.00;99.90;;;;;;5001295;28;20037;-89
2022/08/27 05:08:50;;;;;;;10.10;4.45;;;15.00;99.90;;;;;;4980339;28;20038;-88
2022/08/27 05:11:18;;;;;;;8.95;4.05;;;15.10;99.90;;;;;;4999669;28;20042;-87
2022/08/27 05:13:45;;;;;;;10.73;4.30;;;15.10;99.90;;;;;;5005136;28;20057;-89
2022/08/27 05:16:14;;;;;;;8.82;4.40;;;15.10;99.90;;;;;;4993740;28;20414;-88
2022/08/27 05:18:40;;;;;;;8.57;4.05;;;15.20;99.90;;;;;;5000632;28;20045;-87
2022/08/27 05:21:07;;;;;;;9.57;4.38;;;15.20;99.90;;;;;;5002263;28;20033;-90
2022/08/27 05:23:33;;;;;;;8.20;4.20;;;15.20;99.90;;;;;;4992703;28;20042;-90
2022/08/27 05:25:59;;;;;;;7.25;3.85;;;15.20;99.90;;;;;;4992283;28;20046;-88
2022/08/27 05:28:27;;;;;;;8.30;4.10;;;15.30;99.90;;;;;;4988293;28;20397;-90
2022/08/27 05:31:01;;;;;;;9.20;3.95;;;15.30;99.90;;;;;;4998994;28;20046;-89
2022/08/27 05:33:27;;;;;;;9.73;4.20;;;15.40;99.90;;;;;;5005524;28;20459;-88
2022/08/27 05:35:55;;;;;;;10.73;3.90;;;15.50;99.90;;;;;;5003556;28;20045;-89
2022/08/27 05:38:23;;;;;;;8.30;4.18;;;15.40;99.90;;;;;;5001450;28;20054;-88
2022/08/27 05:40:50;;;;;;;9.48;4.38;;;15.50;99.90;;;;;;5005571;28;20050;-89
2022/08/27 05:43:17;;;;;;;8.15;3.78;;;15.50;99.90;;;;;;5008094;28;20052;-90
2022/08/27 05:45:48;;;;;;;7.55;3.80;;;15.40;99.90;;;;;;4991569;28;20052;-93
2022/08/27 05:48:14;;;;;;;6.97;3.70;;;15.60;99.90;;;;;;5006499;28;20134;-90
2022/08/27 05:50:42;;;;;;;8.15;3.90;;;15.60;99.90;;;;;;5005867;28;20099;-91
2022/08/27 05:53:09;;;;;;;8.60;3.60;;;15.60;99.90;;;;;;4987678;28;20088;-90
2022/08/27 05:55:45;;;;;;;8.50;3.60;;;15.80;99.90;;;;;;5009695;28;20049;-91
2022/08/27 06:01:05;;;;;;;9.48;3.92;;;15.90;99.90;;;;;;5006898;28;20073;-89
2022/08/27 06:03:36;;;;;;;8.75;3.50;;;16.00;99.90;;;;;;5006747;28;20060;-92
2022/08/27 06:06:04;;;;;;;10.25;3.88;;;16.00;99.90;;;;;;5014033;28;20052;-92
2022/08/27 06:08:30;;;;;;;9.27;3.45;;;16.00;99.90;;;;;;5014694;28;20042;-91
2022/08/27 06:10:56;;;;;;;7.00;3.17;;;16.30;99.90;;;;;;4999098;28;20042;-92
2022/08/27 06:13:22;;;;;;;9.18;3.55;;;16.30;99.90;;;;;;5018009;28;20049;-92
2022/08/27 06:15:49;;;;;;;8.20;3.55;;;16.40;99.90;;;;;;5040926;28;20053;-94
2022/08/27 06:18:15;;;;;;;7.35;2.92;;;16.40;99.90;;;;;;5006955;28;20042;-95
2022/08/27 06:20:41;;;;;;;7.95;2.60;;;16.50;99.90;;;;;;5010001;28;20528;-93
2022/08/27 06:23:06;;;;;;;7.57;3.10;;;16.60;99.90;;;;;;5003693;28;20046;-95
2022/08/27 06:25:32;;;;;;;7.85;2.75;;;16.70;99.90;;;;;;5015659;28;20049;-94
2022/08/27 06:27:58;;;;;;;8.02;3.15;;;16.80;99.90;;;;;;5011037;28;20084;-94
2022/08/27 06:30:24;;;;;;;8.18;3.13;;;16.90;99.90;;;;;;5008794;28;20080;-94
2022/08/27 06:32:50;;;;;;;8.68;2.97;;;16.90;99.90;;;;;;5013374;28;20061;-88
2022/08/27 06:35:17;;;;;;;8.18;3.20;;;16.90;99.90;;;;;;4995918;28;20053;-94
2022/08/27 06:37:43;;;;;;;7.78;3.35;;;16.90;99.90;;;;;;5017614;28;20397;-94
2022/08/27 06:40:09;;;;;;;7.55;3.05;;;16.80;99.90;;;;;;4995807;28;20128;-94
2022/08/27 06:42:36;;;;;;;7.65;2.72;;;16.80;99.90;;;;;;5022353;28;20048;-95
2022/08/27 06:45:02;;;;;;;8.18;3.10;;;16.90;99.90;;;;;;5015334;28;20047;-95
2022/08/27 06:47:31;;;;;;;6.78;2.97;;;17.00;99.90;;;;;;4999235;28;20115;-90
2022/08/27 06:49:57;;;;;;;8.05;2.80;;;17.00;99.90;;;;;;5006388;28;20116;-92
2022/08/27 06:52:23;;;;;;;8.48;2.80;;;17.20;99.90;;;;;;5006083;28;20196;-94
2022/08/27 06:54:49;;;;;;;6.80;2.60;;;17.40;99.90;;;;;;5008306;28;20054;-94
2022/08/27 06:57:15;;;;;;;6.78;2.75;;;17.50;99.90;;;;;;5000203;28;20462;-91
2022/08/27 06:59:42;;;;;;;8.45;3.00;;;17.70;99.90;;;;;;5000763;28;20093;-93
2022/08/27 07:02:08;;;;;;;8.65;2.85;;;17.70;99.90;;;;;;5007030;28;20046;-91
2022/08/27 07:04:34;;;;;;;6.05;2.50;;;17.80;99.90;;;;;;4988708;28;20049;-92
2022/08/27 07:07:01;;;;;;;7.95;2.53;;;17.80;99.90;;;;;;5005292;28;20387;-90
2022/08/27 07:09:29;;;;;;;7.80;2.50;;;17.90;99.90;;;;;;5004632;28;20444;-92
2022/08/27 07:11:56;;;;;;;7.43;2.55;;;17.90;99.90;;;;;;5012570;28;20042;-91
2022/08/27 07:14:24;;;;;;;7.15;2.58;;;18.10;99.90;;;;;;5027430;28;20048;-94
2022/08/27 07:16:51;;;;;;;8.13;2.38;;;18.00;99.90;;;;;;4997110;28;20038;-92
2022/08/27 07:19:17;;;;;;;8.02;2.30;;;18.10;99.90;;;;;;5009579;28;20414;-90
2022/08/27 07:21:43;;;;;;;8.68;2.70;;;18.30;99.90;;;;;;5004501;28;20050;-94
2022/08/27 07:24:09;;;;;;;7.88;2.38;;;18.30;99.90;;;;;;5003803;28;20048;-93
2022/08/27 07:26:38;;;;;;;8.07;2.17;;;18.60;99.90;;;;;;5011064;28;20041;-92
2022/08/27 07:29:05;;;;;;;7.07;2.30;;;18.60;99.90;;;;;;5003678;28;20384;-92
2022/08/27 07:31:34;;;;;;;4.93;1.80;;;18.70;99.90;;;;;;4988911;28;20630;-91
2022/08/27 07:34:00;;;;;;;8.02;2.20;;;18.80;99.90;;;;;;5002085;28;20103;-92
2022/08/27 07:36:26;;;;;;;8.00;2.22;;;18.80;99.90;;;;;;4995643;28;20049;-91
2022/08/27 07:38:52;;;;;;;8.18;2.10;;;18.90;99.90;;;;;;5004992;28;20493;-88
2022/08/27 07:41:18;;;;;;;8.65;2.47;;;18.90;99.90;;;;;;5002980;28;20034;-91
2022/08/27 07:46:27;;;;;;;7.22;1.92;;;19.10;99.90;;;;;;4992191;28;20045;-92
2022/08/27 07:48:55;;;;;;;6.85;1.90;;;19.30;99.90;;;;;;5005628;28;20061;-92
2022/08/27 07:51:23;;;;;;;7.35;1.77;;;19.40;99.90;;;;;;5002558;28;20038;-92
2022/08/27 07:53:49;;;;;;;7.82;1.88;;;19.40;99.90;;;;;;5004035;28;20133;-92
2022/08/27 07:56:15;;;;;;;7.95;1.88;;;19.60;99.90;;;;;;5006227;28;20124;-94
2022/08/27 07:58:41;;;;;;;7.15;1.83;;;19.60;99.90;;;;;;4997144;28;20154;-93
2022/08/27 08:01:08;;;;;;;7.15;1.70;;;19.80;99.90;;;;;;5004988;28;20049;-92
2022/08/27 08:03:34;;;;;;;8.27;2.00;;;19.70;99.90;;;;;;4985670;28;20056;-94
2022/08/27 08:06:05;;;;;;;7.95;1.98;;;19.90;99.90;;;;;;5006557;28;20046;-93
2022/08/27 08:08:33;;;;;;;6.88;1.90;;;19.80;99.90;;;;;;5003633;28;20095;-92
2022/08/27 08:10:59;;;;;;;6.95;1.90;;;19.80;99.90;;;;;;5008218;28;20050;-94
2022/08/27 08:13:25;;;;;;;6.15;1.77;;;19.70;99.90;;;;;;4985455;28;20114;-93
2022/08/27 08:15:51;;;;;;;8.98;2.05;;;19.90;99.90;;;;;;4987654;28;20085;-93
2022/08/27 08:18:16;;;;;;;6.97;1.58;;;19.90;99.90;;;;;;5001528;28;20568;-95
2022/08/27 08:20:42;;;;;;;8.48;1.92;;;20.00;99.90;;;;;;4993913;28;20267;-91
2022/08/27 08:23:08;;;;;;;8.45;2.10;;;20.00;99.90;;;;;;5011798;28;20042;-93
2022/08/27 08:25:34;;;;;;;6.35;1.80;;;20.10;99.90;;;;;;5010410;28;20058;-93
2022/08/27 08:27:59;;;;;;;8.38;1.85;;;20.20;99.90;;;;;;5010685;28;20133;-91
2022/08/27 08:30:26;;;;;;;7.63;1.77;;;20.10;99.90;;;;;;4993482;28;20045;-89
2022/08/27 08:32:52;;;;;;;7.05;1.80;;;20.10;99.90;;;;;;5009511;28;20453;-93
2022/08/27 08:35:18;;;;;;;7.13;1.63;;;20.10;99.90;;;;;;5002533;28;20046;-94
2022/08/27 08:37:44;;;;;;;7.05;1.70;;;20.20;99.90;;;;;;5003202;28;20042;-94
2022/08/27 08:40:34;;;;;;;8.25;1.77;;;20.10;99.90;;;;;;5004743;28;20139;-94
2022/08/27 08:43:01;;;;;;;5.50;1.58;;;20.00;99.90;;;;;;5001994;28;20042;-92
2022/08/27 08:45:31;;;;;;;5.65;1.60;;;20.10;99.90;;;;;;4986413;28;20054;-92
2022/08/27 08:48:11;;;;;;;8.90;2.30;;;20.00;99.90;;;;;;4978164;28;20480;-90
2022/08/27 08:50:58;;;;;;;5.97;1.70;;;20.00;99.90;;;;;;5001027;28;20053;-93
2022/08/27 08:53:50;;;;;;;6.45;1.55;;;20.00;99.90;;;;;;4989574;28;20085;-93
2022/08/27 08:56:30;;;;;;;6.03;1.70;;;19.90;99.90;;;;;;4988954;28;20038;-89
2022/08/27 08:59:07;;;;;;;8.43;1.83;;;20.00;99.90;;;;;;5001642;28;20064;-90
2022/08/27 09:01:34;;;;;;;8.88;2.08;;;20.10;99.90;;;;;;5001002;28;20543;-91
2022/08/27 09:04:03;;;;;;;6.38;1.77;;;20.40;99.90;;;;;;4975657;28;20574;-90
2022/08/27 09:06:52;;;;;;;8.05;1.70;;;20.50;99.90;;;;;;4987544;28;20092;-93
2022/08/27 09:09:29;;;;;;;6.93;1.83;;;20.60;99.90;;;;;;5002322;28;20043;-92
2022/08/27 09:12:14;;;;;;;6.78;1.77;;;20.70;99.90;;;;;;5001631;28;20046;-95
2022/08/27 09:14:48;;;;;;;6.53;1.70;;;20.70;99.90;;;;;;5011448;28;20049;-95
2022/08/27 09:17:13;;;;;;;6.40;1.80;;;20.70;99.90;;;;;;5014326;28;20070;-93
2022/08/27 09:19:39;;;;;;;7.55;1.75;;;20.70;99.90;;;;;;4998460;28;20502;-92
2022/08/27 09:22:27;;;;;;;7.18;1.50;;;20.70;99.90;;;;;;4986388;28;20387;-91
2022/08/27 09:25:24;;;;;;;7.63;2.05;;;20.70;99.90;;;;;;4979726;28;20034;-93
2022/08/27 09:27:53;;;;;;;5.72;1.63;;;20.60;99.90;;;;;;4984734;28;20115;-87
2022/08/27 09:30:25;;;;;;;7.97;1.70;;;20.70;99.90;;;;;;4991199;28;20245;-89
2022/08/27 09:32:58;;;;;;;5.55;1.50;;;20.80;99.90;;;;;;4984869;28;20468;-91
2022/08/27 09:35:26;;;;;;;6.38;1.60;;;20.80;99.90;;;;;;5004604;28;20050;-89
2022/08/27 09:37:54;;;;;;;7.20;1.85;;;20.80;99.90;;;;;;5005898;28;20485;-93
2022/08/27 09:40:36;;;;;;;8.20;1.75;;;20.70;99.90;;;;;;5005029;28;20052;-90
2022/08/27 09:43:27;;;;;;;7.20;1.40;;;20.70;99.90;;;;;;4983941;28;20582;-89
2022/08/27 09:45:56;;;;;;;7.87;1.77;;;20.70;99.90;;;;;;5002436;28;20053;-90
2022/08/27 09:48:33;;;;;;;6.82;1.50;;;20.80;99.90;;;;;;4990813;28;20292;-93
2022/08/27 09:51:20;;;;;;;5.93;1.35;;;20.90;99.90;;;;;;5003456;28;20038;-93
2022/08/27 09:53:49;;;;;;;6.68;1.63;;;20.90;99.90;;;;;;5005161;28;20041;-92
2022/08/27 09:56:36;;;;;;;6.80;1.52;;;21.00;99.90;;;;;;5007170;28;20487;-90
2022/08/27 09:59:06;;;;;;;9.77;1.80;;;20.90;99.90;;;;;;5008763;28;20490;-89
2022/08/27 10:01:37;;;;;;;8.27;1.70;;;21.00;99.90;;;;;;5008786;28;20053;-92
2022/08/27 10:04:12;;;;;;;8.32;1.60;;;20.90;99.90;;;;;;4983559;28;20458;-93
2022/08/27 10:06:43;;;;;;;6.80;1.42;;;20.80;99.90;;;;;;4991914;28;20045;-89
2022/08/27 10:09:15;;;;;;;6.80;2.03;;;20.80;99.90;;;;;;4993860;28;20092;-92
2022/08/27 10:11:54;;;;;;;7.72;1.55;;;20.80;99.90;;;;;;5007982;28;20052;-94
2022/08/27 10:14:31;;;;;;;7.60;1.63;;;20.80;99.90;;;;;;5010941;28;20393;-89
2022/08/27 10:17:16;;;;;;;4.35;1.30;;;20.90;99.90;;;;;;4989094;28;20038;-91
2022/08/27 10:19:56;;;;;;;8.13;2.10;;;21.00;99.90;;;;;;4994277;28;20072;-92
2022/08/27 10:22:22;;;;;;;8.80;1.83;;;21.10;99.90;;;;;;4993625;28;20206;-92
2022/08/27 10:25:12;;;;;;;6.38;1.52;;;21.10;99.90;;;;;;5009599;28;20446;-88
2022/08/27 10:27:56;;;;;;;7.53;1.50;;;21.20;99.90;;;;;;5012089;28;20042;-91
2022/08/27 10:30:31;;;;;;;8.60;1.77;;;21.30;99.90;;;;;;4993915;28;20056;-91
2022/08/27 10:33:06;;;;;;;6.72;1.40;;;21.30;99.90;;;;;;4982209;28;20049;-92
2022/08/27 10:35:45;;;;;;;8.05;1.90;;;21.40;99.90;;;;;;5010678;28;20050;-88
2022/08/27 10:38:37;;;;;;;6.70;1.48;;;21.40;99.90;;;;;;5005322;28;20050;-94
2022/08/27 10:41:21;;;;;;;7.63;1.42;;;21.30;99.90;;;;;;4974546;28;20058;-88
2022/08/27 10:44:05;;;;;;;7.35;1.67;;;21.20;99.90;;;;;;5007655;28;20044;-95
2022/08/27 10:47:15;;;;;;;8.68;1.60;;;21.10;99.90;;;;;;5009169;28;20076;-92
2022/08/27 10:50:07;;;;;;;5.38;1.42;;;21.10;99.90;;;;;;4985897;28;20061;-87
2022/08/27 10:52:42;;;;;;;7.88;1.75;;;21.00;99.90;;;;;;5010333;28;20041;-94
2022/08/27 10:55:13;;;;;;;7.65;2.00;;;21.00;99.90;;;;;;5010570;28;20084;-89
2022/08/27 10:57:54;;;;;;;7.72;1.50;;;21.00;99.90;;;;;;5012459;28;20466;-90
2022/08/27 11:00:22;;;;;;;;;;;21.00;99.90;;;;;;4993112;28;20053;-86
2022/08/27 11:02:53;;;;;;;6.38;1.48;;;21.00;99.90;;;;;;5005773;28;19928;-92
2022/08/27 11:05:25;;;;;;;8.13;1.77;;;21.10;99.90;;;;;;4994882;28;20060;-94
2022/08/27 11:08:12;;;;;;;6.50;1.67;;;21.30;99.90;;;;;;5010021;28;20053;-91
2022/08/27 11:10:43;;;;;;;8.20;1.63;;;21.30;99.90;;;;;;4992386;28;20061;-92
2022/08/27 11:13:33;;;;;;;7.93;1.73;;;21.30;99.90;;;;;;5009025;28;20064;-86
2022/08/27 11:16:01;;;;;;;8.55;1.52;;;21.40;99.90;;;;;;5008532;28;20172;-95
2022/08/27 11:18:36;;;;;;;8.10;2.03;;;21.40;99.90;;;;;;4997543;28;20050;-90
2022/08/27 11:21:18;;;;;;;8.18;1.52;;;21.40;99.90;;;;;;5017250;28;20053;-89
2022/08/27 11:23:53;;;;;;;7.57;1.60;;;21.40;99.90;;;;;;5012366;28;20064;-93
2022/08/27 11:26:19;;;;;;;7.03;1.55;;;21.30;99.90;;;;;;5012549;28;20042;-89
2022/08/27 11:28:57;;;;;;;8.13;1.40;;;21.30;99.90;;;;;;5009254;28;20490;-90
2022/08/27 11:31:34;;;;;;;8.20;1.52;;;21.40;99.90;;;;;;4987650;28;20064;-87
2022/08/27 11:34:16;;;;;;;7.30;1.58;;;21.40;99.90;;;;;;4991384;28;20053;-92
2022/08/27 11:36:51;;;;;;;6.97;1.33;;;21.40;99.90;;;;;;5009663;28;20487;-91
2022/08/27 11:39:44;;;;;;;7.25;1.60;;;21.30;99.90;;;;;;5011747;28;20069;-91
2022/08/27 11:42:17;;;;;;;8.23;1.70;;;21.40;99.90;;;;;;5008248;28;20065;-87
2022/08/27 11:44:48;;;;;;;8.18;1.80;;;21.50;99.90;;;;;;5015257;28;20045;-88
2022/08/27 11:47:26;;;;;;;7.43;1.60;;;21.50;99.90;;;;;;5012149;28;20421;-89
2022/08/27 11:49:53;;;;;;;7.60;1.67;;;21.60;99.90;;;;;;4996625;28;20053;-93
2022/08/27 11:52:36;;;;;;;8.23;1.77;;;21.70;99.90;;;;;;5014357;28;20135;-92
2022/08/27 11:55:19;;;;;;;8.43;1.55;;;21.70;99.90;;;;;;5013400;28;20057;-91
2022/08/27 11:58:00;;;;;;;6.35;1.48;;;21.60;99.90;;;;;;5005466;28;20053;-91
2022/08/27 12:00:26;;;;;;;7.22;1.55;;;21.50;99.90;;;;;;5010955;28;20057;-92
2022/08/27 12:03:18;;;;;;;8.93;1.38;;;21.40;99.90;;;;;;5004734;28;20049;-89
2022/08/27 12:05:54;;;;;;;6.82;1.50;;;21.40;99.90;;;;;;5013236;28;20045;-93
2022/08/27 12:08:22;;;;;;;7.63;1.50;;;21.30;99.90;;;;;;4999933;28;20057;-90
2022/08/27 12:11:16;;;;;;;6.90;1.40;;;21.20;99.90;;;;;;5006079;28;20042;-90
2022/08/27 12:13:56;;;;;;;7.95;1.75;;;21.20;99.90;;;;;;5006474;28;20068;-90
2022/08/27 12:16:59;;;;;;;8.75;1.50;;;21.40;99.90;;;;;;5008494;28;20161;-90
2022/08/27 12:19:40;;;;;;;7.03;1.50;;;21.40;99.90;;;;;;5006408;28;20486;-93
2022/08/27 12:23:38;;;;;;;7.15;1.40;;;21.50;99.90;;;;;;5008908;28;20069;-92
2022/08/27 12:25:21;;;;;;;8.48;1.50;;;21.50;99.90;;;;;;5011116;28;20056;-93
2022/08/27 12:28:02;;;;;;;6.88;1.70;;;21.40;99.90;;;;;;5012135;28;20101;-90
2022/08/27 12:30:50;;;;;;;7.50;1.80;;;21.40;99.90;;;;;;5004189;28;20050;-92
2022/08/27 12:33:33;;;;;;;6.95;1.30;;;21.30;99.90;;;;;;4992261;28;20045;-95
2022/08/27 12:36:16;;;;;;;7.15;1.40;;;21.10;99.90;;;;;;4989388;28;20495;-89
2022/08/27 12:38:52;;;;;;;7.72;1.52;;;21.20;99.90;;;;;;4990600;28;20050;-89
2022/08/27 12:41:37;;;;;;;6.80;1.38;;;21.30;99.90;;;;;;4989691;28;20046;-94
2022/08/27 12:44:08;;;;;;;5.03;1.48;;;21.40;99.90;;;;;;4991513;28;20529;-92
2022/08/27 12:47:03;;;;;;;7.25;1.40;;;21.50;99.90;;;;;;4990358;28;20454;-87
2022/08/27 12:49:42;;;;;;;5.88;1.30;;;21.70;99.90;;;;;;5009205;28;20045;-93
2022/08/27 12:52:37;;;;;;;7.03;1.63;;;21.70;99.90;;;;;;5012006;28;20045;-90
2022/08/27 12:55:37;;;;;;;7.30;1.33;;;21.60;99.90;;;;;;4989684;28;20140;-90
2022/08/27 12:58:14;;;;;;;8.07;1.52;;;21.50;99.90;;;;;;5007282;28;20337;-92
2022/08/27 13:00:59;;;;;;;6.90;1.30;;;21.40;99.90;;;;;;4989655;28;20034;-93
2022/08/27 13:03:34;;;;;;;7.07;1.30;;;21.30;99.90;;;;;;4985984;28;20050;-92
2022/08/27 13:06:00;;;;;;;4.65;1.45;;;21.20;99.90;;;;;;5008641;28;20124;-91
2022/08/27 13:08:32;;;;;;;7.95;1.48;;;21.10;99.90;;;;;;5006202;28;20165;-89
2022/08/27 13:11:23;;;;;;;6.70;1.40;;;21.10;99.90;;;;;;5004185;28;20049;-91